sensor_id;sensor_type;location;lat;lon;timestamp;P1;durP1;ratioP1;P2;durP2;ratioP2
71387;SDS011;59201;59.902;10.520;2022-08-18T00:01:39;4.78;;;1.50;;
71387;SDS011;59201;59.902;10.520;2022-08-18T00:04:06;6.53;;;1.70;;
71387;SDS011;59201;59.902;10.520;2022-08-18T00:06:32;5.68;;;2.13;;
71387;SDS011;59201;59.902;10.520;2022-08-18T00:09:00;5.03;;;1.60;;
71387;SDS011;59201;59.902;10.520;2022-08-18T00:11:27;6.55;;;1.60;;
71387;SDS011;59201;59.902;10.520;2022-08-18T00:13:53;5.32;;;1.52;;
71387;SDS011;59201;59.902;10.520;2022-08-18T00:16:19;4.90;;;1.50;;
71387;SDS011;59201;59.902;10.520;2022-08-18T00:18:45;4.88;;;1.45;;
71387;SDS011;59201;59.902;10.520;2022-08-18T00:21:12;6.03;;;2.08;;
71387;SDS011;59201;59.902;10.520;2022-08-18T00:23:38;4.90;;;1.70;;
71387;SDS011;59201;59.902;10.520;2022-08-18T00:26:04;5.18;;;1.60;;
71387;SDS011;59201;59.902;10.520;2022-08-18T00:28:30;4.57;;;1.53;;
71387;SDS011;59201;59.902;10.520;2022-08-18T00:30:56;4.55;;;1.60;;
71387;SDS011;59201;59.902;10.520;2022-08-18T00:33:22;5.03;;;1.58;;
71387;SDS011;59201;59.902;10.520;2022-08-18T00:35:48;6.03;;;1.40;;
71387;SDS011;59201;59.902;10.520;2022-08-18T00:38:14;4.55;;;1.52;;
71387;SDS011;59201;59.902;10.520;2022-08-18T00:40:46;4.40;;;1.33;;
71387;SDS011;59201;59.902;10.520;2022-08-18T00:43:14;4.15;;;1.30;;
71387;SDS011;59201;59.902;10.520;2022-08-18T00:45:43;4.45;;;1.40;;
71387;SDS011;59201;59.902;10.520;2022-08-18T00:48:10;6.20;;;1.73;;
71387;SDS011;59201;59.902;10.520;2022-08-18T00:53:25;4.87;;;1.57;;
71387;SDS011;59201;59.902;10.520;2022-08-18T00:55:50;5.13;;;1.42;;
71387;SDS011;59201;59.902;10.520;2022-08-18T00:58:22;5.20;;;1.60;;
71387;SDS011;59201;59.902;10.520;2022-08-18T01:00:49;5.95;;;1.58;;
71387;SDS011;59201;59.902;10.520;2022-08-18T01:03:16;4.45;;;1.50;;
71387;SDS011;59201;59.902;10.520;2022-08-18T01:05:47;5.97;;;1.30;;
71387;SDS011;59201;59.902;10.520;2022-08-18T01:08:15;4.68;;;1.48;;
71387;SDS011;59201;59.902;10.520;2022-08-18T01:10:41;6.00;;;1.50;;
71387;SDS011;59201;59.902;10.520;2022-08-18T01:13:08;4.90;;;1.42;;
71387;SDS011;59201;59.902;10.520;2022-08-18T01:15:34;5.25;;;1.40;;
71387;SDS011;59201;59.902;10.520;2022-08-18T01:18:12;5.60;;;1.50;;
71387;SDS011;59201;59.902;10.520;2022-08-18T01:21:14;5.50;;;1.50;;
71387;SDS011;59201;59.902;10.520;2022-08-18T01:24:01;4.90;;;1.40;;
71387;SDS011;59201;59.902;10.520;2022-08-18T01:26:28;4.82;;;1.50;;
71387;SDS011;59201;59.902;10.520;2022-08-18T01:28:59;5.47;;;1.50;;
71387;SDS011;59201;59.902;10.520;2022-08-18T01:31:36;4.73;;;1.50;;
71387;SDS011;59201;59.902;10.520;2022-08-18T01:34:04;4.93;;;1.50;;
71387;SDS011;59201;59.902;10.520;2022-08-18T01:36:31;6.68;;;1.63;;
71387;SDS011;59201;59.902;10.520;2022-08-18T01:38:57;4.88;;;1.60;;
71387;SDS011;59201;59.902;10.520;2022-08-18T01:41:24;5.90;;;1.45;;
71387;SDS011;59201;59.902;10.520;2022-08-18T01:43:51;5.20;;;1.40;;
71387;SDS011;59201;59.902;10.520;2022-08-18T01:46:20;4.40;;;1.45;;
71387;SDS011;59201;59.902;10.520;2022-08-18T01:48:47;5.72;;;1.60;;
71387;SDS011;59201;59.902;10.520;2022-08-18T01:51:13;5.57;;;1.58;;
71387;SDS011;59201;59.902;10.520;2022-08-18T01:53:40;4.60;;;1.40;;
71387;SDS011;59201;59.902;10.520;2022-08-18T01:56:06;5.30;;;1.40;;
71387;SDS011;59201;59.902;10.520;2022-08-18T01:58:33;4.93;;;1.40;;
71387;SDS011;59201;59.902;10.520;2022-08-18T02:00:59;6.60;;;1.85;;
71387;SDS011;59201;59.902;10.520;2022-08-18T02:03:45;4.35;;;1.30;;
71387;SDS011;59201;59.902;10.520;2022-08-18T02:06:14;4.85;;;1.40;;
71387;SDS011;59201;59.902;10.520;2022-08-18T02:08:42;5.57;;;1.50;;
71387;SDS011;59201;59.902;10.520;2022-08-18T02:11:09;4.80;;;1.38;;
71387;SDS011;59201;59.902;10.520;2022-08-18T02:13:35;5.32;;;1.60;;
71387;SDS011;59201;59.902;10.520;2022-08-18T02:16:01;5.60;;;1.30;;
71387;SDS011;59201;59.902;10.520;2022-08-18T02:18:32;6.55;;;1.48;;
71387;SDS011;59201;59.902;10.520;2022-08-18T02:21:04;5.00;;;1.30;;
71387;SDS011;59201;59.902;10.520;2022-08-18T02:23:31;4.63;;;1.48;;
71387;SDS011;59201;59.902;10.520;2022-08-18T02:25:57;4.93;;;1.50;;
71387;SDS011;59201;59.902;10.520;2022-08-18T02:28:23;4.80;;;1.42;;
71387;SDS011;59201;59.902;10.520;2022-08-18T02:30:50;5.38;;;1.50;;
71387;SDS011;59201;59.902;10.520;2022-08-18T02:33:16;4.80;;;1.47;;
71387;SDS011;59201;59.902;10.520;2022-08-18T02:35:42;4.20;;;1.30;;
71387;SDS011;59201;59.902;10.520;2022-08-18T02:38:10;5.20;;;1.50;;
71387;SDS011;59201;59.902;10.520;2022-08-18T02:40:36;4.60;;;1.50;;
71387;SDS011;59201;59.902;10.520;2022-08-18T02:43:06;6.13;;;2.13;;
71387;SDS011;59201;59.902;10.520;2022-08-18T02:45:33;4.90;;;1.73;;
71387;SDS011;59201;59.902;10.520;2022-08-18T02:48:00;6.40;;;1.80;;
71387;SDS011;59201;59.902;10.520;2022-08-18T02:50:26;5.43;;;1.73;;
71387;SDS011;59201;59.902;10.520;2022-08-18T02:52:52;8.68;;;2.10;;
71387;SDS011;59201;59.902;10.520;2022-08-18T02:55:18;4.82;;;1.70;;
71387;SDS011;59201;59.902;10.520;2022-08-18T02:57:46;5.73;;;1.97;;
71387;SDS011;59201;59.902;10.520;2022-08-18T03:00:16;6.00;;;2.05;;
71387;SDS011;59201;59.902;10.520;2022-08-18T03:02:46;5.07;;;1.55;;
71387;SDS011;59201;59.902;10.520;2022-08-18T03:05:12;7.28;;;1.58;;
71387;SDS011;59201;59.902;10.520;2022-08-18T03:07:38;7.55;;;1.73;;
71387;SDS011;59201;59.902;10.520;2022-08-18T03:10:05;7.60;;;1.87;;
71387;SDS011;59201;59.902;10.520;2022-08-18T03:12:31;5.70;;;1.60;;
71387;SDS011;59201;59.902;10.520;2022-08-18T03:14:57;6.45;;;1.55;;
71387;SDS011;59201;59.902;10.520;2022-08-18T03:17:26;5.03;;;1.50;;
71387;SDS011;59201;59.902;10.520;2022-08-18T03:19:52;7.20;;;1.80;;
71387;SDS011;59201;59.902;10.520;2022-08-18T03:22:18;5.07;;;1.53;;
71387;SDS011;59201;59.902;10.520;2022-08-18T03:24:45;6.53;;;1.90;;
71387;SDS011;59201;59.902;10.520;2022-08-18T03:27:11;6.68;;;1.90;;
71387;SDS011;59201;59.902;10.520;2022-08-18T03:29:37;4.95;;;1.60;;
71387;SDS011;59201;59.902;10.520;2022-08-18T03:32:03;5.88;;;1.80;;
71387;SDS011;59201;59.902;10.520;2022-08-18T03:34:30;6.50;;;1.80;;
71387;SDS011;59201;59.902;10.520;2022-08-18T03:36:56;8.07;;;1.73;;
71387;SDS011;59201;59.902;10.520;2022-08-18T03:39:22;6.70;;;1.92;;
71387;SDS011;59201;59.902;10.520;2022-08-18T03:41:50;6.47;;;1.50;;
71387;SDS011;59201;59.902;10.520;2022-08-18T03:44:20;6.38;;;1.70;;
71387;SDS011;59201;59.902;10.520;2022-08-18T03:46:46;6.90;;;1.90;;
71387;SDS011;59201;59.902;10.520;2022-08-18T03:49:12;5.00;;;1.60;;
71387;SDS011;59201;59.902;10.520;2022-08-18T03:51:41;6.13;;;1.90;;
71387;SDS011;59201;59.902;10.520;2022-08-18T03:54:07;5.80;;;1.58;;
71387;SDS011;59201;59.902;10.520;2022-08-18T03:56:34;6.95;;;1.92;;
71387;SDS011;59201;59.902;10.520;2022-08-18T03:59:05;5.93;;;1.60;;
71387;SDS011;59201;59.902;10.520;2022-08-18T04:01:32;6.43;;;1.65;;
71387;SDS011;59201;59.902;10.520;2022-08-18T04:04:03;5.88;;;1.65;;
71387;SDS011;59201;59.902;10.520;2022-08-18T04:06:34;6.50;;;1.80;;
71387;SDS011;59201;59.902;10.520;2022-08-18T04:09:04;9.32;;;2.42;;
71387;SDS011;59201;59.902;10.520;2022-08-18T04:11:31;6.10;;;1.70;;
71387;SDS011;59201;59.902;10.520;2022-08-18T04:13:57;5.43;;;1.52;;
71387;SDS011;59201;59.902;10.520;2022-08-18T04:16:24;5.70;;;1.63;;
71387;SDS011;59201;59.902;10.520;2022-08-18T04:18:50;5.20;;;1.45;;
71387;SDS011;59201;59.902;10.520;2022-08-18T04:21:16;5.60;;;1.63;;
71387;SDS011;59201;59.902;10.520;2022-08-18T04:23:43;7.83;;;2.17;;
71387;SDS011;59201;59.902;10.520;2022-08-18T04:26:09;5.40;;;1.60;;
71387;SDS011;59201;59.902;10.520;2022-08-18T04:28:37;6.25;;;1.50;;
71387;SDS011;59201;59.902;10.520;2022-08-18T04:31:07;6.25;;;1.70;;
71387;SDS011;59201;59.902;10.520;2022-08-18T04:33:35;5.40;;;1.70;;
71387;SDS011;59201;59.902;10.520;2022-08-18T04:36:08;5.37;;;1.60;;
71387;SDS011;59201;59.902;10.520;2022-08-18T04:38:35;5.00;;;1.83;;
71387;SDS011;59201;59.902;10.520;2022-08-18T04:41:01;5.60;;;1.52;;
71387;SDS011;59201;59.902;10.520;2022-08-18T04:43:28;6.80;;;1.70;;
71387;SDS011;59201;59.902;10.520;2022-08-18T04:45:54;6.20;;;1.83;;
71387;SDS011;59201;59.902;10.520;2022-08-18T04:48:26;5.37;;;1.50;;
71387;SDS011;59201;59.902;10.520;2022-08-18T04:50:52;4.93;;;1.90;;
71387;SDS011;59201;59.902;10.520;2022-08-18T04:53:18;6.78;;;1.60;;
71387;SDS011;59201;59.902;10.520;2022-08-18T04:56:03;6.25;;;1.70;;
71387;SDS011;59201;59.902;10.520;2022-08-18T04:58:29;5.20;;;1.55;;
71387;SDS011;59201;59.902;10.520;2022-08-18T05:00:59;5.10;;;1.50;;
71387;SDS011;59201;59.902;10.520;2022-08-18T05:03:26;6.05;;;1.55;;
71387;SDS011;59201;59.902;10.520;2022-08-18T05:05:53;5.10;;;1.70;;
71387;SDS011;59201;59.902;10.520;2022-08-18T05:08:19;5.80;;;1.77;;
71387;SDS011;59201;59.902;10.520;2022-08-18T05:10:46;6.22;;;1.95;;
71387;SDS011;59201;59.902;10.520;2022-08-18T05:13:13;5.93;;;1.67;;
71387;SDS011;59201;59.902;10.520;2022-08-18T05:15:41;5.63;;;2.00;;
71387;SDS011;59201;59.902;10.520;2022-08-18T05:18:08;5.25;;;1.67;;
71387;SDS011;59201;59.902;10.520;2022-08-18T05:20:35;5.22;;;1.50;;
71387;SDS011;59201;59.902;10.520;2022-08-18T05:23:02;6.22;;;1.83;;
71387;SDS011;59201;59.902;10.520;2022-08-18T05:25:28;7.10;;;1.83;;
71387;SDS011;59201;59.902;10.520;2022-08-18T05:27:55;5.65;;;1.70;;
71387;SDS011;59201;59.902;10.520;2022-08-18T05:30:21;6.00;;;1.80;;
71387;SDS011;59201;59.902;10.520;2022-08-18T05:32:47;6.30;;;1.52;;
71387;SDS011;59201;59.902;10.520;2022-08-18T05:35:15;5.00;;;1.58;;
71387;SDS011;59201;59.902;10.520;2022-08-18T05:40:27;8.10;;;1.90;;
71387;SDS011;59201;59.902;10.520;2022-08-18T05:42:55;9.93;;;2.20;;
71387;SDS011;59201;59.902;10.520;2022-08-18T05:45:23;6.85;;;2.13;;
71387;SDS011;59201;59.902;10.520;2022-08-18T05:47:49;5.88;;;1.95;;
71387;SDS011;59201;59.902;10.520;2022-08-18T05:50:16;5.53;;;1.70;;
71387;SDS011;59201;59.902;10.520;2022-08-18T05:55:16;5.35;;;1.92;;
71387;SDS011;59201;59.902;10.520;2022-08-18T05:58:06;5.57;;;1.70;;
71387;SDS011;59201;59.902;10.520;2022-08-18T06:00:33;7.05;;;2.58;;
71387;SDS011;59201;59.902;10.520;2022-08-18T06:03:03;7.23;;;1.87;;
71387;SDS011;59201;59.902;10.520;2022-08-18T06:05:35;6.55;;;1.88;;
71387;SDS011;59201;59.902;10.520;2022-08-18T06:08:08;6.63;;;1.65;;
71387;SDS011;59201;59.902;10.520;2022-08-18T06:10:36;6.13;;;1.65;;
71387;SDS011;59201;59.902;10.520;2022-08-18T06:13:02;5.82;;;1.88;;
71387;SDS011;59201;59.902;10.520;2022-08-18T06:18:10;5.55;;;1.65;;
71387;SDS011;59201;59.902;10.520;2022-08-18T06:26:02;5.50;;;2.00;;
71387;SDS011;59201;59.902;10.520;2022-08-18T06:36:38;7.03;;;1.92;;
71387;SDS011;59201;59.902;10.520;2022-08-18T06:39:15;6.03;;;1.80;;
71387;SDS011;59201;59.902;10.520;2022-08-18T06:41:46;6.77;;;1.87;;
71387;SDS011;59201;59.902;10.520;2022-08-18T06:47:04;6.95;;;2.00;;
71387;SDS011;59201;59.902;10.520;2022-08-18T06:49:54;5.10;;;1.60;;
71387;SDS011;59201;59.902;10.520;2022-08-18T06:52:23;5.28;;;1.58;;
71387;SDS011;59201;59.902;10.520;2022-08-18T06:54:50;5.90;;;1.60;;
71387;SDS011;59201;59.902;10.520;2022-08-18T06:57:30;5.43;;;1.75;;
71387;SDS011;59201;59.902;10.520;2022-08-18T07:00:20;5.18;;;1.50;;
71387;SDS011;59201;59.902;10.520;2022-08-18T07:07:43;6.80;;;1.77;;
71387;SDS011;59201;59.902;10.520;2022-08-18T07:12:38;4.78;;;1.75;;
71387;SDS011;59201;59.902;10.520;2022-08-18T07:15:05;5.75;;;1.65;;
71387;SDS011;59201;59.902;10.520;2022-08-18T07:17:35;5.07;;;1.60;;
71387;SDS011;59201;59.902;10.520;2022-08-18T07:20:06;6.10;;;1.60;;
71387;SDS011;59201;59.902;10.520;2022-08-18T07:25:23;6.97;;;1.80;;
71387;SDS011;59201;59.902;10.520;2022-08-18T07:27:50;7.32;;;1.90;;
71387;SDS011;59201;59.902;10.520;2022-08-18T07:35:42;5.88;;;1.77;;
71387;SDS011;59201;59.902;10.520;2022-08-18T07:40:41;6.15;;;1.98;;
71387;SDS011;59201;59.902;10.520;2022-08-18T07:48:20;6.32;;;1.77;;
71387;SDS011;59201;59.902;10.520;2022-08-18T07:56:34;5.88;;;1.90;;
71387;SDS011;59201;59.902;10.520;2022-08-18T08:09:25;5.78;;;1.77;;
71387;SDS011;59201;59.902;10.520;2022-08-18T08:11:55;5.27;;;1.57;;
71387;SDS011;59201;59.902;10.520;2022-08-18T08:14:36;8.32;;;1.85;;
71387;SDS011;59201;59.902;10.520;2022-08-18T08:23:07;5.60;;;1.88;;
71387;SDS011;59201;59.902;10.520;2022-08-18T08:27:37;6.97;;;1.80;;
71387;SDS011;59201;59.902;10.520;2022-08-18T08:30:11;7.00;;;2.00;;
71387;SDS011;59201;59.902;10.520;2022-08-18T08:35:10;6.50;;;2.28;;
71387;SDS011;59201;59.902;10.520;2022-08-18T08:40:07;7.38;;;2.25;;
71387;SDS011;59201;59.902;10.520;2022-08-18T08:45:10;6.75;;;2.20;;
71387;SDS011;59201;59.902;10.520;2022-08-18T08:47:43;7.03;;;2.30;;
71387;SDS011;59201;59.902;10.520;2022-08-18T08:50:15;6.00;;;2.13;;
71387;SDS011;59201;59.902;10.520;2022-08-18T08:52:50;5.63;;;2.10;;
71387;SDS011;59201;59.902;10.520;2022-08-18T08:57:54;6.93;;;2.08;;
71387;SDS011;59201;59.902;10.520;2022-08-18T09:00:22;6.55;;;2.33;;
71387;SDS011;59201;59.902;10.520;2022-08-18T09:05:20;5.78;;;2.00;;
71387;SDS011;59201;59.902;10.520;2022-08-18T09:08:01;7.93;;;2.38;;
71387;SDS011;59201;59.902;10.520;2022-08-18T09:23:18;8.68;;;2.30;;
71387;SDS011;59201;59.902;10.520;2022-08-18T09:25:46;7.47;;;2.35;;
71387;SDS011;59201;59.902;10.520;2022-08-18T09:35:58;7.13;;;2.30;;
71387;SDS011;59201;59.902;10.520;2022-08-18T09:38:30;7.18;;;2.40;;
71387;SDS011;59201;59.902;10.520;2022-08-18T09:41:20;8.47;;;2.60;;
71387;SDS011;59201;59.902;10.520;2022-08-18T09:44:07;8.80;;;2.33;;
71387;SDS011;59201;59.902;10.520;2022-08-18T09:51:54;8.13;;;2.60;;
71387;SDS011;59201;59.902;10.520;2022-08-18T09:59:49;6.90;;;2.40;;
71387;SDS011;59201;59.902;10.520;2022-08-18T10:02:01;9.10;;;2.38;;
71387;SDS011;59201;59.902;10.520;2022-08-18T10:04:29;8.07;;;2.70;;
71387;SDS011;59201;59.902;10.520;2022-08-18T10:12:49;7.03;;;2.40;;
71387;SDS011;59201;59.902;10.520;2022-08-18T10:15:28;7.55;;;2.70;;
71387;SDS011;59201;59.902;10.520;2022-08-18T10:29:06;7.85;;;2.70;;
71387;SDS011;59201;59.902;10.520;2022-08-18T10:32:21;6.85;;;2.50;;
71387;SDS011;59201;59.902;10.520;2022-08-18T10:37:18;9.68;;;2.65;;
71387;SDS011;59201;59.902;10.520;2022-08-18T10:39:47;7.70;;;2.50;;
71387;SDS011;59201;59.902;10.520;2022-08-18T10:42:28;9.05;;;2.90;;
71387;SDS011;59201;59.902;10.520;2022-08-18T10:45:43;10.85;;;2.58;;
71387;SDS011;59201;59.902;10.520;2022-08-18T10:47:43;7.10;;;2.50;;
71387;SDS011;59201;59.902;10.520;2022-08-18T10:50:22;9.15;;;2.72;;
71387;SDS011;59201;59.902;10.520;2022-08-18T10:55:35;6.85;;;2.75;;
71387;SDS011;59201;59.902;10.520;2022-08-18T10:58:11;7.32;;;2.60;;
71387;SDS011;59201;59.902;10.520;2022-08-18T11:05:39;7.07;;;2.25;;
71387;SDS011;59201;59.902;10.520;2022-08-18T11:08:06;6.53;;;2.60;;
71387;SDS011;59201;59.902;10.520;2022-08-18T11:15:40;8.18;;;2.58;;
71387;SDS011;59201;59.902;10.520;2022-08-18T11:23:40;7.43;;;2.63;;
71387;SDS011;59201;59.902;10.520;2022-08-18T11:26:13;6.50;;;2.40;;
71387;SDS011;59201;59.902;10.520;2022-08-18T11:28:39;7.70;;;2.50;;
71387;SDS011;59201;59.902;10.520;2022-08-18T11:31:05;8.88;;;2.75;;
71387;SDS011;59201;59.902;10.520;2022-08-18T11:33:31;7.50;;;2.47;;
71387;SDS011;59201;59.902;10.520;2022-08-18T11:35:58;8.20;;;2.60;;
71387;SDS011;59201;59.902;10.520;2022-08-18T11:38:25;9.23;;;2.97;;
71387;SDS011;59201;59.902;10.520;2022-08-18T11:43:57;7.28;;;2.53;;
71387;SDS011;59201;59.902;10.520;2022-08-18T11:46:28;6.97;;;2.30;;
71387;SDS011;59201;59.902;10.520;2022-08-18T11:48:54;7.82;;;2.70;;
71387;SDS011;59201;59.902;10.520;2022-08-18T11:51:28;12.97;;;2.60;;
71387;SDS011;59201;59.902;10.520;2022-08-18T11:53:57;6.65;;;2.22;;
71387;SDS011;59201;59.902;10.520;2022-08-18T11:56:25;8.05;;;2.63;;
71387;SDS011;59201;59.902;10.520;2022-08-18T12:01:53;9.57;;;2.80;;
71387;SDS011;59201;59.902;10.520;2022-08-18T12:11:57;9.02;;;2.75;;
71387;SDS011;59201;59.902;10.520;2022-08-18T12:14:26;7.68;;;2.65;;
71387;SDS011;59201;59.902;10.520;2022-08-18T12:16:53;7.23;;;3.00;;
71387;SDS011;59201;59.902;10.520;2022-08-18T12:19:19;9.18;;;2.65;;
71387;SDS011;59201;59.902;10.520;2022-08-18T12:21:50;8.32;;;2.47;;
71387;SDS011;59201;59.902;10.520;2022-08-18T12:24:37;8.65;;;2.72;;
71387;SDS011;59201;59.902;10.520;2022-08-18T12:27:02;8.30;;;2.40;;
71387;SDS011;59201;59.902;10.520;2022-08-18T12:29:28;8.00;;;2.27;;
71387;SDS011;59201;59.902;10.520;2022-08-18T12:31:55;14.10;;;3.33;;
71387;SDS011;59201;59.902;10.520;2022-08-18T12:34:22;7.07;;;2.60;;
71387;SDS011;59201;59.902;10.520;2022-08-18T12:36:52;8.77;;;2.47;;
71387;SDS011;59201;59.902;10.520;2022-08-18T12:39:19;8.10;;;2.63;;
71387;SDS011;59201;59.902;10.520;2022-08-18T12:41:45;8.60;;;2.47;;
71387;SDS011;59201;59.902;10.520;2022-08-18T12:44:11;9.13;;;2.42;;
71387;SDS011;59201;59.902;10.520;2022-08-18T12:46:37;7.32;;;2.40;;
71387;SDS011;59201;59.902;10.520;2022-08-18T12:49:04;8.07;;;2.20;;
71387;SDS011;59201;59.902;10.520;2022-08-18T12:51:30;7.85;;;2.28;;
71387;SDS011;59201;59.902;10.520;2022-08-18T12:53:56;9.37;;;2.50;;
71387;SDS011;59201;59.902;10.520;2022-08-18T12:56:31;9.23;;;2.33;;
71387;SDS011;59201;59.902;10.520;2022-08-18T12:59:01;11.73;;;2.65;;
71387;SDS011;59201;59.902;10.520;2022-08-18T13:01:28;7.28;;;2.50;;
71387;SDS011;59201;59.902;10.520;2022-08-18T13:03:54;8.50;;;2.65;;
71387;SDS011;59201;59.902;10.520;2022-08-18T13:06:21;9.30;;;2.60;;
71387;SDS011;59201;59.902;10.520;2022-08-18T13:08:51;8.38;;;2.40;;
71387;SDS011;59201;59.902;10.520;2022-08-18T13:11:18;8.23;;;2.47;;
71387;SDS011;59201;59.902;10.520;2022-08-18T13:13:45;7.40;;;2.40;;
71387;SDS011;59201;59.902;10.520;2022-08-18T13:16:11;8.90;;;2.50;;
71387;SDS011;59201;59.902;10.520;2022-08-18T13:18:38;6.07;;;2.10;;
71387;SDS011;59201;59.902;10.520;2022-08-18T13:21:06;10.50;;;2.35;;
71387;SDS011;59201;59.902;10.520;2022-08-18T13:23:34;10.55;;;2.53;;
71387;SDS011;59201;59.902;10.520;2022-08-18T13:26:00;8.20;;;2.20;;
71387;SDS011;59201;59.902;10.520;2022-08-18T13:28:26;13.50;;;2.72;;
71387;SDS011;59201;59.902;10.520;2022-08-18T13:30:53;10.00;;;2.60;;
71387;SDS011;59201;59.902;10.520;2022-08-18T13:33:19;10.43;;;2.55;;
71387;SDS011;59201;59.902;10.520;2022-08-18T13:35:45;15.13;;;3.72;;
71387;SDS011;59201;59.902;10.520;2022-08-18T13:38:12;6.32;;;2.00;;
71387;SDS011;59201;59.902;10.520;2022-08-18T13:40:39;8.80;;;2.47;;
71387;SDS011;59201;59.902;10.520;2022-08-18T13:43:06;7.70;;;2.17;;
71387;SDS011;59201;59.902;10.520;2022-08-18T13:45:33;9.80;;;2.50;;
71387;SDS011;59201;59.902;10.520;2022-08-18T13:47:59;9.00;;;2.25;;
71387;SDS011;59201;59.902;10.520;2022-08-18T13:50:25;9.25;;;2.58;;
71387;SDS011;59201;59.902;10.520;2022-08-18T13:52:52;7.43;;;2.10;;
71387;SDS011;59201;59.902;10.520;2022-08-18T13:55:18;9.27;;;2.40;;
71387;SDS011;59201;59.902;10.520;2022-08-18T13:57:45;8.52;;;2.47;;
71387;SDS011;59201;59.902;10.520;2022-08-18T14:00:15;7.32;;;2.22;;
71387;SDS011;59201;59.902;10.520;2022-08-18T14:02:44;9.48;;;2.50;;
71387;SDS011;59201;59.902;10.520;2022-08-18T14:05:12;9.45;;;2.50;;
71387;SDS011;59201;59.902;10.520;2022-08-18T14:07:38;11.30;;;2.57;;
71387;SDS011;59201;59.902;10.520;2022-08-18T14:10:06;8.77;;;2.40;;
71387;SDS011;59201;59.902;10.520;2022-08-18T14:12:35;8.73;;;2.95;;
71387;SDS011;59201;59.902;10.520;2022-08-18T14:15:03;8.35;;;2.58;;
71387;SDS011;59201;59.902;10.520;2022-08-18T14:17:36;8.68;;;2.38;;
71387;SDS011;59201;59.902;10.520;2022-08-18T14:20:02;11.30;;;2.60;;
71387;SDS011;59201;59.902;10.520;2022-08-18T14:22:55;8.90;;;2.28;;
71387;SDS011;59201;59.902;10.520;2022-08-18T14:25:40;10.85;;;2.63;;
71387;SDS011;59201;59.902;10.520;2022-08-18T14:28:25;11.60;;;2.75;;
71387;SDS011;59201;59.902;10.520;2022-08-18T14:30:52;8.23;;;2.60;;
71387;SDS011;59201;59.902;10.520;2022-08-18T14:33:19;8.43;;;2.83;;
71387;SDS011;59201;59.902;10.520;2022-08-18T14:35:46;9.25;;;2.90;;
71387;SDS011;59201;59.902;10.520;2022-08-18T14:38:12;8.68;;;2.50;;
71387;SDS011;59201;59.902;10.520;2022-08-18T14:40:42;11.05;;;3.28;;
71387;SDS011;59201;59.902;10.520;2022-08-18T14:43:10;11.95;;;2.65;;
71387;SDS011;59201;59.902;10.520;2022-08-18T14:45:36;10.30;;;2.40;;
71387;SDS011;59201;59.902;10.520;2022-08-18T14:48:03;9.48;;;2.55;;
71387;SDS011;59201;59.902;10.520;2022-08-18T14:50:29;9.90;;;2.67;;
71387;SDS011;59201;59.902;10.520;2022-08-18T14:52:55;9.65;;;2.45;;
71387;SDS011;59201;59.902;10.520;2022-08-18T14:55:21;7.07;;;2.80;;
71387;SDS011;59201;59.902;10.520;2022-08-18T14:57:48;9.30;;;2.70;;
71387;SDS011;59201;59.902;10.520;2022-08-18T15:00:16;7.70;;;2.67;;
71387;SDS011;59201;59.902;10.520;2022-08-18T15:02:43;8.95;;;2.50;;
71387;SDS011;59201;59.902;10.520;2022-08-18T15:05:09;9.82;;;3.10;;
71387;SDS011;59201;59.902;10.520;2022-08-18T15:07:35;11.30;;;3.30;;
71387;SDS011;59201;59.902;10.520;2022-08-18T15:10:06;11.90;;;3.17;;
71387;SDS011;59201;59.902;10.520;2022-08-18T15:12:33;9.98;;;3.15;;
71387;SDS011;59201;59.902;10.520;2022-08-18T15:14:59;9.95;;;3.20;;
71387;SDS011;59201;59.902;10.520;2022-08-18T15:17:25;7.60;;;3.10;;
71387;SDS011;59201;59.902;10.520;2022-08-18T15:19:51;8.70;;;3.08;;
71387;SDS011;59201;59.902;10.520;2022-08-18T15:22:18;11.30;;;3.57;;
71387;SDS011;59201;59.902;10.520;2022-08-18T15:25:03;9.05;;;2.78;;
71387;SDS011;59201;59.902;10.520;2022-08-18T15:27:48;10.77;;;3.10;;
71387;SDS011;59201;59.902;10.520;2022-08-18T15:30:15;11.38;;;2.80;;
71387;SDS011;59201;59.902;10.520;2022-08-18T15:32:42;10.95;;;3.00;;
71387;SDS011;59201;59.902;10.520;2022-08-18T15:35:10;6.97;;;2.60;;
71387;SDS011;59201;59.902;10.520;2022-08-18T15:37:36;10.73;;;3.30;;
71387;SDS011;59201;59.902;10.520;2022-08-18T15:42:36;8.38;;;2.78;;
71387;SDS011;59201;59.902;10.520;2022-08-18T15:45:02;8.88;;;2.97;;
71387;SDS011;59201;59.902;10.520;2022-08-18T15:47:28;9.67;;;3.77;;
71387;SDS011;59201;59.902;10.520;2022-08-18T15:49:57;9.82;;;2.92;;
71387;SDS011;59201;59.902;10.520;2022-08-18T15:52:23;10.95;;;3.13;;
71387;SDS011;59201;59.902;10.520;2022-08-18T15:54:50;9.30;;;3.00;;
71387;SDS011;59201;59.902;10.520;2022-08-18T15:57:16;10.15;;;3.80;;
71387;SDS011;59201;59.902;10.520;2022-08-18T15:59:42;12.07;;;3.37;;
71387;SDS011;59201;59.902;10.520;2022-08-18T16:02:08;11.00;;;3.30;;
71387;SDS011;59201;59.902;10.520;2022-08-18T16:04:35;10.02;;;3.47;;
71387;SDS011;59201;59.902;10.520;2022-08-18T16:07:03;9.45;;;3.20;;
71387;SDS011;59201;59.902;10.520;2022-08-18T16:09:30;9.13;;;3.30;;
71387;SDS011;59201;59.902;10.520;2022-08-18T16:11:56;10.13;;;3.67;;
71387;SDS011;59201;59.902;10.520;2022-08-18T16:14:22;9.83;;;3.23;;
71387;SDS011;59201;59.902;10.520;2022-08-18T16:16:48;11.30;;;3.65;;
71387;SDS011;59201;59.902;10.520;2022-08-18T16:19:14;8.82;;;3.15;;
71387;SDS011;59201;59.902;10.520;2022-08-18T16:21:40;9.52;;;3.08;;
71387;SDS011;59201;59.902;10.520;2022-08-18T16:24:07;11.27;;;3.08;;
71387;SDS011;59201;59.902;10.520;2022-08-18T16:26:33;10.63;;;3.23;;
71387;SDS011;59201;59.902;10.520;2022-08-18T16:28:59;10.82;;;3.05;;
71387;SDS011;59201;59.902;10.520;2022-08-18T16:31:25;10.02;;;3.42;;
71387;SDS011;59201;59.902;10.520;2022-08-18T16:33:52;9.20;;;3.53;;
71387;SDS011;59201;59.902;10.520;2022-08-18T16:36:19;10.05;;;3.70;;
71387;SDS011;59201;59.902;10.520;2022-08-18T16:38:46;8.70;;;3.87;;
71387;SDS011;59201;59.902;10.520;2022-08-18T16:41:14;8.30;;;3.88;;
71387;SDS011;59201;59.902;10.520;2022-08-18T16:43:41;9.88;;;3.55;;
71387;SDS011;59201;59.902;10.520;2022-08-18T16:46:11;9.48;;;4.13;;
71387;SDS011;59201;59.902;10.520;2022-08-18T16:48:38;11.32;;;3.83;;
71387;SDS011;59201;59.902;10.520;2022-08-18T16:51:04;10.33;;;3.40;;
71387;SDS011;59201;59.902;10.520;2022-08-18T16:53:30;10.77;;;3.45;;
71387;SDS011;59201;59.902;10.520;2022-08-18T16:55:57;10.23;;;3.47;;
71387;SDS011;59201;59.902;10.520;2022-08-18T16:58:23;10.50;;;3.20;;
71387;SDS011;59201;59.902;10.520;2022-08-18T17:01:07;7.80;;;3.45;;
71387;SDS011;59201;59.902;10.520;2022-08-18T17:03:52;10.93;;;3.53;;
71387;SDS011;59201;59.902;10.520;2022-08-18T17:06:31;8.35;;;3.75;;
71387;SDS011;59201;59.902;10.520;2022-08-18T17:08:57;11.25;;;3.55;;
71387;SDS011;59201;59.902;10.520;2022-08-18T17:11:24;13.82;;;4.35;;
71387;SDS011;59201;59.902;10.520;2022-08-18T17:13:54;11.45;;;3.90;;
71387;SDS011;59201;59.902;10.520;2022-08-18T17:16:21;11.63;;;3.60;;
71387;SDS011;59201;59.902;10.520;2022-08-18T17:18:51;12.40;;;4.28;;
71387;SDS011;59201;59.902;10.520;2022-08-18T17:21:18;9.95;;;3.80;;
71387;SDS011;59201;59.902;10.520;2022-08-18T17:23:45;9.73;;;4.28;;
71387;SDS011;59201;59.902;10.520;2022-08-18T17:29:00;11.00;;;4.63;;
71387;SDS011;59201;59.902;10.520;2022-08-18T17:31:28;12.32;;;4.20;;
71387;SDS011;59201;59.902;10.520;2022-08-18T17:33:55;11.68;;;4.28;;
71387;SDS011;59201;59.902;10.520;2022-08-18T17:36:26;13.00;;;4.80;;
71387;SDS011;59201;59.902;10.520;2022-08-18T17:38:54;13.60;;;4.13;;